Abbotsford, WI (54405)

3:45 AM CDT on July 30, 2016 (GMT -0500)
Great Lakes Weather Service HQ | | Change Station

Elev 1430 ft 45.04 °N, 90.34 °W | Updated 14 minutes ago

Overcast
Overcast
57.4 °F
Feels Like 57.4 °F
N
0.0
Wind Variable Wind from SE

Today
High -- | Low -- °F
--% Chance of Precip.
Yesterday
High -- | Low -- °F
Precip. -- in
Pressure 30.07 in
Visibility 10.0 miles
Clouds Overcast 8000 ft
Dew Point 56 °F
Humidity 96%
Rainfall 0.00 in
Snow Depth Not available.
5:45 AM 8:29 PM
Waning Crescent, 15% visible
METAR KMDZ 300835Z AUTO 06003KT 10SM OVC080 14/14 A3007 RMK AO2 T01370137
Pressure 30.07 in
Visibility 10.0 miles
Clouds Overcast 8000 ft
Dew Point 56 °F
Humidity 96%
Rainfall 0.00 in
Snow Depth Not available.
5:45 AM 8:29 PM
Waning Crescent, 15% visible
METAR KMDZ 300835Z AUTO 06003KT 10SM OVC080 14/14 A3007 RMK AO2 T01370137

10-Day Weather Forecast

Almanac

Astronomy

Jul. 30, 2016 Rise Set
Actual Time
Civil Twilight
Nautical Twilight
Astronomical Twilight
Moon
Length of Visible Light
Length of Day
Tomorrow will be .
, % of the Moon is Illuminated

Today's Extremes

State Highs State Lows

Community

WunderPhotos

Upload Photos

1,928,508 photos uploaded!

WunderBlog® & News

Nearby

Air Quality

  Air Quality AQ Index Pollutant
Not available.

Snow Depth

Station Depth Elevation

Earthquake Activity

City Distance Mag. Time & Date
Minimum magnitude displayed is 2.5.

Coastal Water Temperatures

Place Temperature

Stations

Nearby Weather Stations

Station Location Temp. Windchill Dew Point Humidity Wind Precip. Elev Updated Type
                   

Watches & Warnings

There are currently no watches in effect.